sensor_id;sensor_type;location;lat;lon;timestamp;P1;durP1;ratioP1;P2;durP2;ratioP2
4547;SDS011;2286;51.570;7.090;2023-07-29T00:00:41;5.13;;;4.07;;
4547;SDS011;2286;51.570;7.090;2023-07-29T00:03:07;4.57;;;4.27;;
4547;SDS011;2286;51.570;7.090;2023-07-29T00:05:36;5.37;;;4.87;;
4547;SDS011;2286;51.570;7.090;2023-07-29T00:08:03;5.23;;;4.50;;
4547;SDS011;2286;51.570;7.090;2023-07-29T00:10:31;5.93;;;5.63;;
4547;SDS011;2286;51.570;7.090;2023-07-29T00:12:58;5.63;;;5.23;;
4547;SDS011;2286;51.570;7.090;2023-07-29T00:15:25;10.23;;;6.17;;
4547;SDS011;2286;51.570;7.090;2023-07-29T00:17:52;5.43;;;5.00;;
4547;SDS011;2286;51.570;7.090;2023-07-29T00:20:19;6.30;;;5.80;;
4547;SDS011;2286;51.570;7.090;2023-07-29T00:22:47;5.70;;;5.20;;
4547;SDS011;2286;51.570;7.090;2023-07-29T00:25:15;7.50;;;6.00;;
4547;SDS011;2286;51.570;7.090;2023-07-29T00:27:41;6.50;;;5.30;;
4547;SDS011;2286;51.570;7.090;2023-07-29T00:30:09;5.37;;;4.97;;
4547;SDS011;2286;51.570;7.090;2023-07-29T00:32:36;5.43;;;4.93;;
4547;SDS011;2286;51.570;7.090;2023-07-29T00:35:03;5.50;;;5.10;;
4547;SDS011;2286;51.570;7.090;2023-07-29T00:37:31;6.47;;;5.87;;
4547;SDS011;2286;51.570;7.090;2023-07-29T00:39:59;7.13;;;4.80;;
4547;SDS011;2286;51.570;7.090;2023-07-29T00:42:26;6.00;;;5.40;;
4547;SDS011;2286;51.570;7.090;2023-07-29T00:44:52;5.63;;;5.13;;
4547;SDS011;2286;51.570;7.090;2023-07-29T00:47:19;6.17;;;4.50;;
4547;SDS011;2286;51.570;7.090;2023-07-29T00:49:48;6.07;;;5.57;;
4547;SDS011;2286;51.570;7.090;2023-07-29T00:52:15;7.30;;;4.90;;
4547;SDS011;2286;51.570;7.090;2023-07-29T00:54:42;5.97;;;5.47;;
4547;SDS011;2286;51.570;7.090;2023-07-29T00:57:10;6.20;;;4.90;;
4547;SDS011;2286;51.570;7.090;2023-07-29T00:59:39;7.27;;;5.63;;
4547;SDS011;2286;51.570;7.090;2023-07-29T01:02:07;7.37;;;4.87;;
4547;SDS011;2286;51.570;7.090;2023-07-29T01:04:34;5.03;;;4.63;;
4547;SDS011;2286;51.570;7.090;2023-07-29T01:07:03;6.43;;;4.93;;
4547;SDS011;2286;51.570;7.090;2023-07-29T01:09:41;6.37;;;5.77;;
4547;SDS011;2286;51.570;7.090;2023-07-29T01:12:16;8.47;;;6.57;;
4547;SDS011;2286;51.570;7.090;2023-07-29T01:14:51;6.23;;;5.63;;
4547;SDS011;2286;51.570;7.090;2023-07-29T01:17:23;5.93;;;5.53;;
4547;SDS011;2286;51.570;7.090;2023-07-29T01:19:59;5.30;;;4.80;;
4547;SDS011;2286;51.570;7.090;2023-07-29T01:22:30;5.70;;;4.77;;
4547;SDS011;2286;51.570;7.090;2023-07-29T01:25:00;4.83;;;4.53;;
4547;SDS011;2286;51.570;7.090;2023-07-29T01:27:27;5.10;;;4.57;;
4547;SDS011;2286;51.570;7.090;2023-07-29T01:29:53;4.97;;;4.43;;
4547;SDS011;2286;51.570;7.090;2023-07-29T01:32:23;4.70;;;4.30;;
4547;SDS011;2286;51.570;7.090;2023-07-29T01:34:56;5.50;;;5.00;;
4547;SDS011;2286;51.570;7.090;2023-07-29T01:37:30;8.40;;;5.33;;
4547;SDS011;2286;51.570;7.090;2023-07-29T01:40:01;7.57;;;4.47;;
4547;SDS011;2286;51.570;7.090;2023-07-29T01:42:29;5.87;;;5.10;;
4547;SDS011;2286;51.570;7.090;2023-07-29T01:44:57;5.27;;;4.40;;
4547;SDS011;2286;51.570;7.090;2023-07-29T01:47:24;9.67;;;4.17;;
4547;SDS011;2286;51.570;7.090;2023-07-29T01:49:51;5.17;;;4.67;;
4547;SDS011;2286;51.570;7.090;2023-07-29T01:52:18;4.50;;;3.90;;
4547;SDS011;2286;51.570;7.090;2023-07-29T01:54:44;4.33;;;3.63;;
4547;SDS011;2286;51.570;7.090;2023-07-29T01:57:13;4.80;;;4.30;;
4547;SDS011;2286;51.570;7.090;2023-07-29T01:59:39;5.83;;;4.80;;
4547;SDS011;2286;51.570;7.090;2023-07-29T02:02:06;4.57;;;4.20;;
4547;SDS011;2286;51.570;7.090;2023-07-29T02:04:33;8.83;;;5.90;;
4547;SDS011;2286;51.570;7.090;2023-07-29T02:07:00;6.50;;;5.33;;
4547;SDS011;2286;51.570;7.090;2023-07-29T02:09:26;5.53;;;5.03;;
4547;SDS011;2286;51.570;7.090;2023-07-29T02:11:54;5.73;;;5.17;;
4547;SDS011;2286;51.570;7.090;2023-07-29T02:14:22;4.53;;;4.23;;
4547;SDS011;2286;51.570;7.090;2023-07-29T02:16:49;5.53;;;5.13;;
4547;SDS011;2286;51.570;7.090;2023-07-29T02:19:16;5.90;;;5.50;;
4547;SDS011;2286;51.570;7.090;2023-07-29T02:21:43;4.90;;;4.40;;
4547;SDS011;2286;51.570;7.090;2023-07-29T02:24:09;6.60;;;4.87;;
4547;SDS011;2286;51.570;7.090;2023-07-29T02:26:36;5.47;;;4.97;;
4547;SDS011;2286;51.570;7.090;2023-07-29T02:29:03;5.27;;;4.87;;
4547;SDS011;2286;51.570;7.090;2023-07-29T02:31:31;5.27;;;4.87;;
4547;SDS011;2286;51.570;7.090;2023-07-29T02:33:59;5.13;;;4.83;;
4547;SDS011;2286;51.570;7.090;2023-07-29T02:36:26;5.13;;;4.57;;
4547;SDS011;2286;51.570;7.090;2023-07-29T02:38:53;5.10;;;4.60;;
4547;SDS011;2286;51.570;7.090;2023-07-29T02:41:20;4.87;;;4.57;;
4547;SDS011;2286;51.570;7.090;2023-07-29T02:43:48;7.10;;;4.47;;
4547;SDS011;2286;51.570;7.090;2023-07-29T02:46:15;5.37;;;4.87;;
4547;SDS011;2286;51.570;7.090;2023-07-29T02:48:43;5.57;;;4.53;;
4547;SDS011;2286;51.570;7.090;2023-07-29T02:51:10;5.00;;;4.60;;
4547;SDS011;2286;51.570;7.090;2023-07-29T02:53:37;6.30;;;5.13;;
4547;SDS011;2286;51.570;7.090;2023-07-29T02:56:04;5.27;;;4.87;;
4547;SDS011;2286;51.570;7.090;2023-07-29T02:58:34;5.87;;;4.87;;
4547;SDS011;2286;51.570;7.090;2023-07-29T03:01:02;5.03;;;4.63;;
4547;SDS011;2286;51.570;7.090;2023-07-29T03:03:29;6.43;;;4.83;;
4547;SDS011;2286;51.570;7.090;2023-07-29T03:05:59;6.00;;;5.43;;
4547;SDS011;2286;51.570;7.090;2023-07-29T03:08:26;5.27;;;4.97;;
4547;SDS011;2286;51.570;7.090;2023-07-29T03:10:53;6.07;;;5.47;;
4547;SDS011;2286;51.570;7.090;2023-07-29T03:13:20;5.67;;;4.80;;
4547;SDS011;2286;51.570;7.090;2023-07-29T03:15:47;5.83;;;5.13;;
4547;SDS011;2286;51.570;7.090;2023-07-29T03:18:14;9.33;;;5.27;;
4547;SDS011;2286;51.570;7.090;2023-07-29T03:20:41;6.00;;;4.70;;
4547;SDS011;2286;51.570;7.090;2023-07-29T03:23:09;4.67;;;4.30;;
4547;SDS011;2286;51.570;7.090;2023-07-29T03:25:36;4.67;;;4.37;;
4547;SDS011;2286;51.570;7.090;2023-07-29T03:28:03;4.90;;;4.50;;
4547;SDS011;2286;51.570;7.090;2023-07-29T03:30:30;6.00;;;5.50;;
4547;SDS011;2286;51.570;7.090;2023-07-29T03:32:56;4.87;;;4.57;;
4547;SDS011;2286;51.570;7.090;2023-07-29T03:35:23;5.67;;;5.17;;
4547;SDS011;2286;51.570;7.090;2023-07-29T03:37:50;4.67;;;4.27;;
4547;SDS011;2286;51.570;7.090;2023-07-29T03:40:18;5.47;;;4.63;;
4547;SDS011;2286;51.570;7.090;2023-07-29T03:42:45;4.93;;;4.63;;
4547;SDS011;2286;51.570;7.090;2023-07-29T03:45:12;5.90;;;5.40;;
4547;SDS011;2286;51.570;7.090;2023-07-29T03:47:38;6.27;;;5.77;;
4547;SDS011;2286;51.570;7.090;2023-07-29T03:50:05;5.93;;;5.40;;
4547;SDS011;2286;51.570;7.090;2023-07-29T03:52:32;7.40;;;6.70;;
4547;SDS011;2286;51.570;7.090;2023-07-29T03:54:59;7.33;;;6.67;;
4547;SDS011;2286;51.570;7.090;2023-07-29T03:57:27;6.33;;;5.73;;
4547;SDS011;2286;51.570;7.090;2023-07-29T03:59:55;7.47;;;6.40;;
4547;SDS011;2286;51.570;7.090;2023-07-29T04:02:21;11.83;;;6.70;;
4547;SDS011;2286;51.570;7.090;2023-07-29T04:04:48;7.37;;;6.87;;
4547;SDS011;2286;51.570;7.090;2023-07-29T04:07:15;7.60;;;7.10;;
4547;SDS011;2286;51.570;7.090;2023-07-29T04:09:42;7.90;;;7.20;;
4547;SDS011;2286;51.570;7.090;2023-07-29T04:12:09;8.80;;;8.10;;
4547;SDS011;2286;51.570;7.090;2023-07-29T04:14:37;8.00;;;7.40;;
4547;SDS011;2286;51.570;7.090;2023-07-29T04:17:04;8.00;;;7.50;;
4547;SDS011;2286;51.570;7.090;2023-07-29T04:19:31;7.47;;;6.87;;
4547;SDS011;2286;51.570;7.090;2023-07-29T04:21:58;7.60;;;7.00;;
4547;SDS011;2286;51.570;7.090;2023-07-29T04:24:25;8.07;;;7.47;;
4547;SDS011;2286;51.570;7.090;2023-07-29T04:26:52;9.30;;;8.00;;
4547;SDS011;2286;51.570;7.090;2023-07-29T04:29:18;8.00;;;7.40;;
4547;SDS011;2286;51.570;7.090;2023-07-29T04:31:47;9.67;;;7.50;;
4547;SDS011;2286;51.570;7.090;2023-07-29T04:34:13;8.83;;;7.80;;
4547;SDS011;2286;51.570;7.090;2023-07-29T04:36:40;8.40;;;6.70;;
4547;SDS011;2286;51.570;7.090;2023-07-29T04:39:07;9.60;;;7.20;;
4547;SDS011;2286;51.570;7.090;2023-07-29T04:41:34;8.43;;;6.83;;
4547;SDS011;2286;51.570;7.090;2023-07-29T04:44:01;7.83;;;7.13;;
4547;SDS011;2286;51.570;7.090;2023-07-29T04:46:27;7.00;;;6.40;;
4547;SDS011;2286;51.570;7.090;2023-07-29T04:48:56;6.30;;;5.80;;
4547;SDS011;2286;51.570;7.090;2023-07-29T04:51:23;5.30;;;4.90;;
4547;SDS011;2286;51.570;7.090;2023-07-29T04:53:50;5.63;;;5.20;;
4547;SDS011;2286;51.570;7.090;2023-07-29T04:56:17;5.07;;;4.67;;
4547;SDS011;2286;51.570;7.090;2023-07-29T04:58:44;5.63;;;5.13;;
4547;SDS011;2286;51.570;7.090;2023-07-29T05:01:11;5.23;;;4.37;;
4547;SDS011;2286;51.570;7.090;2023-07-29T05:03:37;5.27;;;4.80;;
4547;SDS011;2286;51.570;7.090;2023-07-29T05:06:06;5.87;;;5.37;;
4547;SDS011;2286;51.570;7.090;2023-07-29T05:08:33;5.57;;;5.17;;
4547;SDS011;2286;51.570;7.090;2023-07-29T05:10:59;5.97;;;5.47;;
4547;SDS011;2286;51.570;7.090;2023-07-29T05:13:26;6.13;;;4.63;;
4547;SDS011;2286;51.570;7.090;2023-07-29T05:15:53;6.27;;;5.67;;
4547;SDS011;2286;51.570;7.090;2023-07-29T05:18:20;7.60;;;5.30;;
4547;SDS011;2286;51.570;7.090;2023-07-29T05:20:47;6.07;;;5.67;;
4547;SDS011;2286;51.570;7.090;2023-07-29T05:23:15;7.13;;;6.50;;
4547;SDS011;2286;51.570;7.090;2023-07-29T05:25:42;6.63;;;5.97;;
4547;SDS011;2286;51.570;7.090;2023-07-29T05:28:08;7.33;;;6.63;;
4547;SDS011;2286;51.570;7.090;2023-07-29T05:30:35;5.43;;;5.00;;
4547;SDS011;2286;51.570;7.090;2023-07-29T05:33:04;4.90;;;4.50;;
4547;SDS011;2286;51.570;7.090;2023-07-29T05:35:32;4.70;;;4.30;;
4547;SDS011;2286;51.570;7.090;2023-07-29T05:37:59;4.03;;;3.73;;
4547;SDS011;2286;51.570;7.090;2023-07-29T05:40:27;5.07;;;3.93;;
4547;SDS011;2286;51.570;7.090;2023-07-29T05:42:54;4.43;;;4.03;;
4547;SDS011;2286;51.570;7.090;2023-07-29T05:45:21;8.90;;;2.97;;
4547;SDS011;2286;51.570;7.090;2023-07-29T05:47:48;3.00;;;2.80;;
4547;SDS011;2286;51.570;7.090;2023-07-29T05:50:14;2.90;;;2.70;;
4547;SDS011;2286;51.570;7.090;2023-07-29T05:52:41;2.10;;;1.90;;
4547;SDS011;2286;51.570;7.090;2023-07-29T05:55:08;2.33;;;2.13;;
4547;SDS011;2286;51.570;7.090;2023-07-29T05:57:36;2.00;;;1.90;;
4547;SDS011;2286;51.570;7.090;2023-07-29T06:00:04;1.87;;;1.77;;
4547;SDS011;2286;51.570;7.090;2023-07-29T06:02:31;1.50;;;1.40;;
4547;SDS011;2286;51.570;7.090;2023-07-29T06:04:58;2.23;;;1.80;;
4547;SDS011;2286;51.570;7.090;2023-07-29T06:07:25;1.77;;;1.67;;
4547;SDS011;2286;51.570;7.090;2023-07-29T06:09:54;1.77;;;1.67;;
4547;SDS011;2286;51.570;7.090;2023-07-29T06:12:22;2.23;;;2.03;;
4547;SDS011;2286;51.570;7.090;2023-07-29T06:14:50;6.60;;;1.60;;
4547;SDS011;2286;51.570;7.090;2023-07-29T06:17:17;1.50;;;1.40;;
4547;SDS011;2286;51.570;7.090;2023-07-29T06:19:44;2.50;;;1.73;;
4547;SDS011;2286;51.570;7.090;2023-07-29T06:22:11;2.00;;;1.60;;
4547;SDS011;2286;51.570;7.090;2023-07-29T06:24:38;2.20;;;1.70;;
4547;SDS011;2286;51.570;7.090;2023-07-29T06:27:05;2.80;;;1.70;;
4547;SDS011;2286;51.570;7.090;2023-07-29T06:29:32;6.73;;;2.00;;
4547;SDS011;2286;51.570;7.090;2023-07-29T06:32:00;1.70;;;1.60;;
4547;SDS011;2286;51.570;7.090;2023-07-29T06:34:27;2.60;;;1.80;;
4547;SDS011;2286;51.570;7.090;2023-07-29T06:36:54;1.83;;;1.73;;
4547;SDS011;2286;51.570;7.090;2023-07-29T06:39:21;3.20;;;1.67;;
4547;SDS011;2286;51.570;7.090;2023-07-29T06:41:47;3.93;;;2.00;;
4547;SDS011;2286;51.570;7.090;2023-07-29T06:44:14;2.43;;;2.23;;
4547;SDS011;2286;51.570;7.090;2023-07-29T06:46:41;2.40;;;2.20;;
4547;SDS011;2286;51.570;7.090;2023-07-29T06:49:09;3.67;;;3.30;;
4547;SDS011;2286;51.570;7.090;2023-07-29T06:51:36;4.70;;;3.00;;
4547;SDS011;2286;51.570;7.090;2023-07-29T06:54:03;3.97;;;3.57;;
4547;SDS011;2286;51.570;7.090;2023-07-29T06:56:30;3.80;;;3.47;;
4547;SDS011;2286;51.570;7.090;2023-07-29T06:58:57;4.03;;;3.60;;
4547;SDS011;2286;51.570;7.090;2023-07-29T07:01:24;4.80;;;3.77;;
4547;SDS011;2286;51.570;7.090;2023-07-29T07:03:50;4.57;;;3.60;;
4547;SDS011;2286;51.570;7.090;2023-07-29T07:06:20;3.33;;;3.07;;
4547;SDS011;2286;51.570;7.090;2023-07-29T07:08:49;4.10;;;3.33;;
4547;SDS011;2286;51.570;7.090;2023-07-29T07:11:16;4.00;;;2.90;;
4547;SDS011;2286;51.570;7.090;2023-07-29T07:13:44;3.27;;;2.97;;
4547;SDS011;2286;51.570;7.090;2023-07-29T07:16:11;2.77;;;2.57;;
4547;SDS011;2286;51.570;7.090;2023-07-29T07:18:38;2.70;;;2.50;;
4547;SDS011;2286;51.570;7.090;2023-07-29T07:21:06;4.33;;;2.77;;
4547;SDS011;2286;51.570;7.090;2023-07-29T07:23:34;2.77;;;2.30;;
4547;SDS011;2286;51.570;7.090;2023-07-29T07:26:01;3.00;;;2.23;;
4547;SDS011;2286;51.570;7.090;2023-07-29T07:28:28;2.93;;;2.30;;
4547;SDS011;2286;51.570;7.090;2023-07-29T07:30:55;2.60;;;2.40;;
4547;SDS011;2286;51.570;7.090;2023-07-29T07:33:22;2.47;;;2.30;;
4547;SDS011;2286;51.570;7.090;2023-07-29T07:35:49;3.07;;;2.10;;
4547;SDS011;2286;51.570;7.090;2023-07-29T07:38:15;2.83;;;2.50;;
4547;SDS011;2286;51.570;7.090;2023-07-29T07:40:46;2.90;;;2.60;;
4547;SDS011;2286;51.570;7.090;2023-07-29T07:43:19;2.57;;;2.37;;
4547;SDS011;2286;51.570;7.090;2023-07-29T07:45:46;2.73;;;2.23;;
4547;SDS011;2286;51.570;7.090;2023-07-29T07:48:12;2.40;;;2.20;;
4547;SDS011;2286;51.570;7.090;2023-07-29T07:50:41;2.70;;;2.20;;
4547;SDS011;2286;51.570;7.090;2023-07-29T07:53:08;5.47;;;2.20;;
4547;SDS011;2286;51.570;7.090;2023-07-29T07:55:35;2.63;;;2.30;;
4547;SDS011;2286;51.570;7.090;2023-07-29T07:58:03;4.17;;;2.80;;
4547;SDS011;2286;51.570;7.090;2023-07-29T08:00:30;3.43;;;2.73;;
4547;SDS011;2286;51.570;7.090;2023-07-29T08:02:56;3.50;;;2.90;;
4547;SDS011;2286;51.570;7.090;2023-07-29T08:05:23;3.07;;;2.07;;
4547;SDS011;2286;51.570;7.090;2023-07-29T08:07:50;2.00;;;1.90;;
4547;SDS011;2286;51.570;7.090;2023-07-29T08:10:17;4.80;;;2.10;;
4547;SDS011;2286;51.570;7.090;2023-07-29T08:12:43;2.47;;;2.30;;
4547;SDS011;2286;51.570;7.090;2023-07-29T08:15:12;1.70;;;1.60;;
4547;SDS011;2286;51.570;7.090;2023-07-29T08:17:38;2.73;;;1.70;;
4547;SDS011;2286;51.570;7.090;2023-07-29T08:20:06;2.50;;;1.50;;
4547;SDS011;2286;51.570;7.090;2023-07-29T08:22:33;3.27;;;1.90;;
4547;SDS011;2286;51.570;7.090;2023-07-29T08:25:00;2.00;;;1.50;;
4547;SDS011;2286;51.570;7.090;2023-07-29T08:27:26;3.83;;;1.50;;
4547;SDS011;2286;51.570;7.090;2023-07-29T08:29:53;1.73;;;1.63;;
4547;SDS011;2286;51.570;7.090;2023-07-29T08:32:21;1.67;;;1.57;;
4547;SDS011;2286;51.570;7.090;2023-07-29T08:34:48;2.43;;;1.80;;
4547;SDS011;2286;51.570;7.090;2023-07-29T08:37:15;7.67;;;1.73;;
4547;SDS011;2286;51.570;7.090;2023-07-29T08:39:42;1.67;;;1.57;;
4547;SDS011;2286;51.570;7.090;2023-07-29T08:42:09;1.80;;;1.40;;
4547;SDS011;2286;51.570;7.090;2023-07-29T08:44:40;3.40;;;1.40;;
4547;SDS011;2286;51.570;7.090;2023-07-29T08:47:07;2.77;;;1.97;;
4547;SDS011;2286;51.570;7.090;2023-07-29T08:49:36;1.40;;;1.00;;
4547;SDS011;2286;51.570;7.090;2023-07-29T08:52:04;4.53;;;1.20;;
4547;SDS011;2286;51.570;7.090;2023-07-29T08:54:32;2.37;;;1.20;;
4547;SDS011;2286;51.570;7.090;2023-07-29T08:56:59;1.10;;;1.00;;
4547;SDS011;2286;51.570;7.090;2023-07-29T08:59:26;3.23;;;1.37;;
4547;SDS011;2286;51.570;7.090;2023-07-29T09:01:54;1.43;;;1.00;;
4547;SDS011;2286;51.570;7.090;2023-07-29T09:04:23;1.20;;;1.10;;
4547;SDS011;2286;51.570;7.090;2023-07-29T09:06:51;2.07;;;1.97;;
4547;SDS011;2286;51.570;7.090;2023-07-29T09:09:20;1.20;;;1.10;;
4547;SDS011;2286;51.570;7.090;2023-07-29T09:11:47;1.90;;;1.80;;
4547;SDS011;2286;51.570;7.090;2023-07-29T09:14:14;1.20;;;1.10;;
4547;SDS011;2286;51.570;7.090;2023-07-29T09:16:41;1.70;;;1.60;;
4547;SDS011;2286;51.570;7.090;2023-07-29T09:19:08;1.50;;;1.10;;
4547;SDS011;2286;51.570;7.090;2023-07-29T09:21:38;0.90;;;0.90;;
4547;SDS011;2286;51.570;7.090;2023-07-29T09:24:06;1.63;;;1.00;;
4547;SDS011;2286;51.570;7.090;2023-07-29T09:26:35;1.47;;;1.37;;
4547;SDS011;2286;51.570;7.090;2023-07-29T09:29:02;1.53;;;1.43;;
4547;SDS011;2286;51.570;7.090;2023-07-29T09:31:29;1.17;;;1.07;;
4547;SDS011;2286;51.570;7.090;2023-07-29T09:33:56;2.10;;;1.50;;
4547;SDS011;2286;51.570;7.090;2023-07-29T09:36:24;1.80;;;1.43;;
4547;SDS011;2286;51.570;7.090;2023-07-29T09:38:52;2.00;;;1.60;;
4547;SDS011;2286;51.570;7.090;2023-07-29T09:41:23;1.63;;;1.30;;
4547;SDS011;2286;51.570;7.090;2023-07-29T09:43:54;1.40;;;1.30;;
4547;SDS011;2286;51.570;7.090;2023-07-29T09:46:22;1.40;;;1.30;;
4547;SDS011;2286;51.570;7.090;2023-07-29T09:48:49;1.73;;;1.43;;
4547;SDS011;2286;51.570;7.090;2023-07-29T09:51:19;2.07;;;1.10;;
4547;SDS011;2286;51.570;7.090;2023-07-29T09:53:47;1.10;;;1.00;;
4547;SDS011;2286;51.570;7.090;2023-07-29T09:56:16;1.63;;;1.00;;
4547;SDS011;2286;51.570;7.090;2023-07-29T09:58:44;1.43;;;1.10;;
4547;SDS011;2286;51.570;7.090;2023-07-29T10:01:11;2.23;;;1.30;;
4547;SDS011;2286;51.570;7.090;2023-07-29T10:03:39;1.40;;;1.27;;
4547;SDS011;2286;51.570;7.090;2023-07-29T10:06:06;2.27;;;1.47;;
4547;SDS011;2286;51.570;7.090;2023-07-29T10:08:34;1.50;;;1.40;;
4547;SDS011;2286;51.570;7.090;2023-07-29T10:11:03;0.90;;;0.90;;
4547;SDS011;2286;51.570;7.090;2023-07-29T10:13:32;1.43;;;1.33;;
4547;SDS011;2286;51.570;7.090;2023-07-29T10:16:01;1.17;;;1.07;;
4547;SDS011;2286;51.570;7.090;2023-07-29T10:18:28;1.47;;;1.37;;
4547;SDS011;2286;51.570;7.090;2023-07-29T10:20:56;2.67;;;1.30;;
4547;SDS011;2286;51.570;7.090;2023-07-29T10:23:24;2.70;;;1.47;;
4547;SDS011;2286;51.570;7.090;2023-07-29T10:25:54;1.83;;;1.73;;
4547;SDS011;2286;51.570;7.090;2023-07-29T10:28:30;1.87;;;1.63;;
4547;SDS011;2286;51.570;7.090;2023-07-29T10:31:01;2.20;;;2.00;;
4547;SDS011;2286;51.570;7.090;2023-07-29T10:33:30;2.30;;;2.10;;
4547;SDS011;2286;51.570;7.090;2023-07-29T10:35:59;2.27;;;2.10;;
4547;SDS011;2286;51.570;7.090;2023-07-29T10:38:27;2.33;;;2.13;;
4547;SDS011;2286;51.570;7.090;2023-07-29T10:40:55;2.03;;;1.93;;
4547;SDS011;2286;51.570;7.090;2023-07-29T10:43:24;2.30;;;2.20;;
4547;SDS011;2286;51.570;7.090;2023-07-29T10:45:53;2.07;;;1.97;;
4547;SDS011;2286;51.570;7.090;2023-07-29T10:48:41;6.27;;;2.33;;
4547;SDS011;2286;51.570;7.090;2023-07-29T10:51:27;2.60;;;2.17;;
4547;SDS011;2286;51.570;7.090;2023-07-29T10:53:56;2.00;;;1.90;;
4547;SDS011;2286;51.570;7.090;2023-07-29T10:56:24;2.67;;;2.57;;
4547;SDS011;2286;51.570;7.090;2023-07-29T10:58:55;2.40;;;2.20;;
4547;SDS011;2286;51.570;7.090;2023-07-29T11:01:27;2.30;;;2.00;;
4547;SDS011;2286;51.570;7.090;2023-07-29T11:04:02;2.93;;;2.20;;
4547;SDS011;2286;51.570;7.090;2023-07-29T11:10:01;3.47;;;1.67;;
4547;SDS011;2286;51.570;7.090;2023-07-29T11:12:36;1.53;;;1.37;;
4547;SDS011;2286;51.570;7.090;2023-07-29T11:15:03;1.50;;;1.40;;
4547;SDS011;2286;51.570;7.090;2023-07-29T11:17:38;1.47;;;1.37;;
4547;SDS011;2286;51.570;7.090;2023-07-29T11:20:07;1.27;;;1.17;;
4547;SDS011;2286;51.570;7.090;2023-07-29T11:22:35;1.77;;;1.63;;
4547;SDS011;2286;51.570;7.090;2023-07-29T11:25:03;3.07;;;1.47;;
4547;SDS011;2286;51.570;7.090;2023-07-29T11:27:30;1.50;;;1.40;;
4547;SDS011;2286;51.570;7.090;2023-07-29T11:29:57;1.27;;;1.17;;
4547;SDS011;2286;51.570;7.090;2023-07-29T11:32:25;2.50;;;1.43;;
4547;SDS011;2286;51.570;7.090;2023-07-29T11:34:52;1.43;;;1.33;;
4547;SDS011;2286;51.570;7.090;2023-07-29T11:37:20;1.40;;;1.30;;
4547;SDS011;2286;51.570;7.090;2023-07-29T11:39:47;4.47;;;1.40;;
4547;SDS011;2286;51.570;7.090;2023-07-29T11:42:14;1.50;;;1.40;;
4547;SDS011;2286;51.570;7.090;2023-07-29T11:44:41;1.43;;;1.30;;
4547;SDS011;2286;51.570;7.090;2023-07-29T11:47:08;4.00;;;1.73;;
4547;SDS011;2286;51.570;7.090;2023-07-29T11:49:36;2.57;;;2.03;;
4547;SDS011;2286;51.570;7.090;2023-07-29T11:52:05;1.60;;;1.50;;
4547;SDS011;2286;51.570;7.090;2023-07-29T11:54:35;2.60;;;1.80;;
4547;SDS011;2286;51.570;7.090;2023-07-29T11:57:02;1.80;;;1.70;;
4547;SDS011;2286;51.570;7.090;2023-07-29T11:59:30;1.53;;;1.43;;
4547;SDS011;2286;51.570;7.090;2023-07-29T12:01:59;1.50;;;1.40;;
4547;SDS011;2286;51.570;7.090;2023-07-29T12:04:27;1.60;;;1.50;;
4547;SDS011;2286;51.570;7.090;2023-07-29T12:06:55;2.23;;;1.40;;
4547;SDS011;2286;51.570;7.090;2023-07-29T12:09:22;1.50;;;1.17;;
4547;SDS011;2286;51.570;7.090;2023-07-29T12:11:50;1.67;;;1.43;;
4547;SDS011;2286;51.570;7.090;2023-07-29T12:14:18;1.70;;;1.53;;
4547;SDS011;2286;51.570;7.090;2023-07-29T12:16:47;2.33;;;1.57;;
4547;SDS011;2286;51.570;7.090;2023-07-29T12:19:16;1.50;;;1.40;;
4547;SDS011;2286;51.570;7.090;2023-07-29T12:21:44;1.63;;;1.50;;
4547;SDS011;2286;51.570;7.090;2023-07-29T12:24:11;2.33;;;2.13;;
4547;SDS011;2286;51.570;7.090;2023-07-29T12:26:40;1.63;;;1.43;;
4547;SDS011;2286;51.570;7.090;2023-07-29T12:29:15;2.00;;;1.40;;
4547;SDS011;2286;51.570;7.090;2023-07-29T12:31:44;1.97;;;1.30;;
4547;SDS011;2286;51.570;7.090;2023-07-29T12:34:16;1.57;;;1.23;;
4547;SDS011;2286;51.570;7.090;2023-07-29T12:36:45;3.20;;;1.60;;
4547;SDS011;2286;51.570;7.090;2023-07-29T12:39:15;1.90;;;1.63;;
4547;SDS011;2286;51.570;7.090;2023-07-29T12:41:43;1.93;;;1.70;;
4547;SDS011;2286;51.570;7.090;2023-07-29T12:44:10;1.50;;;1.40;;
4547;SDS011;2286;51.570;7.090;2023-07-29T12:46:38;2.93;;;1.80;;
4547;SDS011;2286;51.570;7.090;2023-07-29T12:49:05;3.00;;;2.20;;
4547;SDS011;2286;51.570;7.090;2023-07-29T12:51:32;3.57;;;2.30;;
4547;SDS011;2286;51.570;7.090;2023-07-29T12:53:59;2.57;;;2.30;;
4547;SDS011;2286;51.570;7.090;2023-07-29T12:56:26;2.60;;;2.40;;
4547;SDS011;2286;51.570;7.090;2023-07-29T12:58:53;2.47;;;2.27;;
4547;SDS011;2286;51.570;7.090;2023-07-29T13:01:20;1.73;;;1.50;;
4547;SDS011;2286;51.570;7.090;2023-07-29T13:03:48;2.03;;;1.83;;
4547;SDS011;2286;51.570;7.090;2023-07-29T13:06:15;1.60;;;1.50;;
4547;SDS011;2286;51.570;7.090;2023-07-29T13:08:42;1.67;;;1.57;;
4547;SDS011;2286;51.570;7.090;2023-07-29T13:11:09;2.03;;;1.73;;
4547;SDS011;2286;51.570;7.090;2023-07-29T13:13:36;3.33;;;1.50;;
4547;SDS011;2286;51.570;7.090;2023-07-29T13:16:03;3.13;;;2.10;;
4547;SDS011;2286;51.570;7.090;2023-07-29T13:18:29;2.13;;;2.03;;
4547;SDS011;2286;51.570;7.090;2023-07-29T13:20:58;2.13;;;1.50;;
4547;SDS011;2286;51.570;7.090;2023-07-29T13:23:25;1.47;;;1.37;;
4547;SDS011;2286;51.570;7.090;2023-07-29T13:25:54;1.97;;;1.87;;
4547;SDS011;2286;51.570;7.090;2023-07-29T13:28:21;4.30;;;1.70;;
4547;SDS011;2286;51.570;7.090;2023-07-29T13:30:48;1.80;;;1.70;;
4547;SDS011;2286;51.570;7.090;2023-07-29T13:33:15;1.70;;;1.30;;
4547;SDS011;2286;51.570;7.090;2023-07-29T13:35:41;1.73;;;1.57;;
4547;SDS011;2286;51.570;7.090;2023-07-29T13:38:10;1.63;;;1.53;;
4547;SDS011;2286;51.570;7.090;2023-07-29T13:40:37;2.13;;;1.93;;
4547;SDS011;2286;51.570;7.090;2023-07-29T13:43:03;1.87;;;1.77;;
4547;SDS011;2286;51.570;7.090;2023-07-29T13:45:30;2.10;;;2.00;;
4547;SDS011;2286;51.570;7.090;2023-07-29T13:47:57;2.50;;;1.70;;
4547;SDS011;2286;51.570;7.090;2023-07-29T13:50:24;2.10;;;2.00;;
4547;SDS011;2286;51.570;7.090;2023-07-29T13:52:51;1.77;;;1.67;;
4547;SDS011;2286;51.570;7.090;2023-07-29T13:55:19;3.10;;;1.80;;
4547;SDS011;2286;51.570;7.090;2023-07-29T13:57:46;2.00;;;1.80;;
4547;SDS011;2286;51.570;7.090;2023-07-29T14:00:13;18.13;;;3.90;;
4547;SDS011;2286;51.570;7.090;2023-07-29T14:02:40;0.50;;;0.30;;
4547;SDS011;2286;51.570;7.090;2023-07-29T14:05:07;0.50;;;0.40;;
4547;SDS011;2286;51.570;7.090;2023-07-29T14:07:34;0.50;;;0.40;;
4547;SDS011;2286;51.570;7.090;2023-07-29T14:10:01;0.50;;;0.40;;
4547;SDS011;2286;51.570;7.090;2023-07-29T14:12:29;0.50;;;0.40;;
4547;SDS011;2286;51.570;7.090;2023-07-29T14:14:56;0.50;;;0.40;;
4547;SDS011;2286;51.570;7.090;2023-07-29T14:17:23;0.47;;;0.40;;
4547;SDS011;2286;51.570;7.090;2023-07-29T14:19:49;0.40;;;0.30;;
4547;SDS011;2286;51.570;7.090;2023-07-29T14:22:16;0.40;;;0.30;;
4547;SDS011;2286;51.570;7.090;2023-07-29T14:24:43;0.40;;;0.40;;
4547;SDS011;2286;51.570;7.090;2023-07-29T14:27:10;1.17;;;1.07;;
4547;SDS011;2286;51.570;7.090;2023-07-29T14:29:38;0.40;;;0.30;;
4547;SDS011;2286;51.570;7.090;2023-07-29T14:32:05;0.40;;;0.30;;
4547;SDS011;2286;51.570;7.090;2023-07-29T14:34:32;0.40;;;0.30;;
4547;SDS011;2286;51.570;7.090;2023-07-29T14:36:59;0.40;;;0.40;;
4547;SDS011;2286;51.570;7.090;2023-07-29T14:39:25;0.40;;;0.30;;
4547;SDS011;2286;51.570;7.090;2023-07-29T14:41:52;0.40;;;0.30;;
4547;SDS011;2286;51.570;7.090;2023-07-29T14:44:19;0.40;;;0.30;;
4547;SDS011;2286;51.570;7.090;2023-07-29T14:46:47;0.40;;;0.30;;
4547;SDS011;2286;51.570;7.090;2023-07-29T14:49:14;0.40;;;0.30;;
4547;SDS011;2286;51.570;7.090;2023-07-29T14:51:41;0.50;;;0.47;;
4547;SDS011;2286;51.570;7.090;2023-07-29T14:54:08;0.40;;;0.40;;
4547;SDS011;2286;51.570;7.090;2023-07-29T14:56:34;0.80;;;0.80;;
4547;SDS011;2286;51.570;7.090;2023-07-29T14:59:01;0.50;;;0.40;;
4547;SDS011;2286;51.570;7.090;2023-07-29T15:01:28;0.50;;;0.40;;
4547;SDS011;2286;51.570;7.090;2023-07-29T15:03:56;0.50;;;0.40;;
4547;SDS011;2286;51.570;7.090;2023-07-29T15:06:23;0.50;;;0.40;;
4547;SDS011;2286;51.570;7.090;2023-07-29T15:08:50;0.50;;;0.40;;
4547;SDS011;2286;51.570;7.090;2023-07-29T15:11:16;0.50;;;0.40;;
4547;SDS011;2286;51.570;7.090;2023-07-29T15:13:43;0.50;;;0.40;;
4547;SDS011;2286;51.570;7.090;2023-07-29T15:16:10;0.50;;;0.40;;
4547;SDS011;2286;51.570;7.090;2023-07-29T15:18:37;0.50;;;0.40;;
4547;SDS011;2286;51.570;7.090;2023-07-29T15:21:05;0.50;;;0.40;;